createdAt,value
2018-04-22T00:02:10.075Z,11.50
2018-04-22T00:04:37.640Z,11.50
2018-04-22T00:07:05.282Z,11.40
2018-04-22T00:09:33.136Z,11.40
2018-04-22T00:12:01.108Z,11.40
2018-04-22T00:14:28.972Z,11.30
2018-04-22T00:16:56.944Z,11.30
2018-04-22T00:19:25.141Z,11.20
2018-04-22T00:21:52.884Z,11.20
2018-04-22T00:24:24.453Z,11.20
2018-04-22T00:26:52.051Z,11.10
2018-04-22T00:29:19.659Z,11.10
2018-04-22T00:31:48.253Z,11.00
2018-04-22T00:34:15.812Z,11.00
2018-04-22T00:36:43.412Z,11.00
2018-04-22T00:39:11.030Z,10.90
2018-04-22T00:41:39.098Z,10.90
2018-04-22T00:44:06.768Z,10.90
2018-04-22T00:46:38.015Z,10.80
2018-04-22T00:49:05.568Z,10.80
2018-04-22T00:51:33.493Z,10.70
2018-04-22T00:54:12.874Z,10.70
2018-04-22T00:56:40.842Z,10.60
2018-04-22T00:59:08.792Z,10.60
2018-04-22T01:01:36.272Z,10.60
2018-04-22T01:04:04.651Z,10.60
2018-04-22T01:06:32.209Z,10.50
2018-04-22T01:09:00.281Z,10.50
2018-04-22T01:11:28.252Z,10.40
2018-04-22T01:13:56.120Z,10.40
2018-04-22T01:16:24.148Z,10.40
2018-04-22T01:18:51.673Z,10.30
2018-04-22T01:21:19.232Z,10.30
2018-04-22T01:23:46.776Z,10.30
2018-04-22T01:26:18.364Z,10.20
2018-04-22T01:28:45.784Z,10.20
2018-04-22T01:31:13.753Z,10.20
2018-04-22T01:33:41.623Z,10.10
2018-04-22T01:36:09.694Z,10.10
2018-04-22T01:38:37.614Z,10.10
2018-04-22T01:41:05.224Z,10.00
2018-04-22T01:43:33.094Z,10.00
2018-04-22T01:46:01.063Z,10.00
2018-04-22T01:48:28.621Z,10.00
2018-04-22T01:50:56.488Z,9.90
2018-04-22T01:53:25.078Z,9.90
2018-04-22T01:55:53.042Z,9.90
2018-04-22T01:58:20.603Z,9.80
2018-04-22T02:00:48.979Z,9.80
2018-04-22T02:03:16.543Z,9.80
2018-04-22T02:05:44.109Z,9.80
2018-04-22T02:08:11.980Z,9.70
2018-04-22T02:10:40.960Z,9.70
2018-04-22T02:13:08.931Z,9.60
2018-04-22T02:15:36.490Z,9.60
2018-04-22T02:18:04.478Z,9.60
2018-04-22T02:20:32.103Z,9.50
2018-04-22T02:22:59.850Z,9.50
2018-04-22T02:25:27.345Z,9.50
2018-04-22T02:27:55.312Z,9.50
2018-04-22T02:30:23.293Z,9.40
2018-04-22T02:32:50.862Z,9.40
2018-04-22T02:35:18.402Z,9.40
2018-04-22T02:37:46.373Z,9.40
2018-04-22T02:40:14.548Z,9.40
2018-04-22T02:42:42.521Z,9.30
2018-04-22T02:45:10.082Z,9.30
2018-04-22T02:47:37.840Z,9.30
2018-04-22T02:50:15.875Z,9.20
2018-04-22T02:52:43.539Z,9.20
2018-04-22T02:55:11.382Z,9.10
2018-04-22T02:57:38.939Z,9.10
2018-04-22T03:00:06.595Z,9.10
2018-04-22T03:02:34.668Z,9.10
2018-04-22T03:05:03.100Z,9.00
2018-04-22T03:07:30.709Z,9.00
2018-04-22T03:09:58.797Z,9.00
2018-04-22T03:12:26.237Z,9.00
2018-04-22T03:14:54.156Z,8.90
2018-04-22T03:17:21.562Z,8.90
2018-04-22T03:19:49.429Z,8.90
2018-04-22T03:22:17.468Z,8.90
2018-04-22T03:24:44.961Z,8.80
2018-04-22T03:27:12.928Z,8.80
2018-04-22T03:29:40.804Z,8.80
2018-04-22T03:32:08.688Z,8.80
2018-04-22T03:34:36.330Z,8.70
2018-04-22T03:37:04.297Z,8.70
2018-04-22T03:39:32.243Z,8.70
2018-04-22T03:41:59.834Z,8.60
2018-04-22T03:44:27.655Z,8.60
2018-04-22T03:46:55.356Z,8.60
2018-04-22T03:49:23.224Z,8.50
2018-04-22T03:51:50.784Z,8.50
2018-04-22T03:54:18.961Z,8.50
2018-04-22T03:56:46.931Z,8.50
2018-04-22T03:59:14.491Z,8.40
2018-04-22T04:01:42.274Z,8.40
2018-04-22T04:04:09.740Z,8.40
2018-04-22T04:06:37.374Z,8.40
2018-04-22T04:09:06.161Z,8.30
2018-04-22T04:11:34.167Z,8.30
2018-04-22T04:14:01.614Z,8.30
2018-04-22T04:16:29.163Z,8.30
2018-04-22T04:19:08.905Z,8.30
2018-04-22T04:21:48.856Z,8.20
2018-04-22T04:27:41.515Z,8.20
2018-04-22T04:30:09.532Z,8.20
2018-04-22T04:32:37.052Z,8.20
2018-04-22T04:35:05.016Z,8.20
2018-04-22T04:37:32.992Z,8.20
2018-04-22T04:40:00.962Z,8.10
2018-04-22T04:42:28.532Z,8.10
2018-04-22T04:44:55.970Z,8.10
2018-04-22T04:47:23.950Z,8.10
2018-04-22T04:49:51.911Z,8.20
2018-04-22T04:52:19.799Z,8.20
2018-04-22T04:54:48.385Z,8.20
2018-04-22T04:57:16.127Z,8.20
2018-04-22T04:59:44.097Z,8.30
2018-04-22T05:02:12.081Z,8.30
2018-04-22T05:04:39.629Z,8.40
2018-04-22T05:07:07.600Z,8.50
2018-04-22T05:09:35.565Z,8.60
2018-04-22T05:12:03.637Z,8.60
2018-04-22T05:14:33.757Z,8.70
2018-04-22T05:17:01.270Z,8.70
2018-04-22T05:19:28.877Z,8.80
2018-04-22T05:21:56.847Z,8.90
2018-04-22T05:24:24.733Z,9.10
2018-04-22T05:26:52.492Z,9.20
2018-04-22T05:29:20.038Z,9.40
2018-04-22T05:31:48.113Z,9.60
2018-04-22T05:34:16.101Z,9.80
2018-04-22T05:36:43.539Z,10.00
2018-04-22T05:39:11.609Z,10.20
2018-04-22T05:41:39.173Z,10.30
2018-04-22T05:44:07.141Z,10.80
2018-04-22T05:46:35.112Z,11.30
2018-04-22T05:49:02.773Z,11.50
2018-04-22T05:51:30.859Z,11.80
2018-04-22T05:53:58.924Z,11.90
2018-04-22T05:56:27.402Z,12.20
2018-04-22T05:58:55.293Z,12.50
2018-04-22T06:01:22.930Z,12.60
2018-04-22T06:03:51.208Z,13.10
2018-04-22T06:06:18.764Z,13.50
2018-04-22T06:08:46.330Z,13.50
2018-04-22T06:11:14.306Z,14.00
2018-04-22T06:13:41.929Z,14.40
2018-04-22T06:16:09.525Z,14.90
2018-04-22T06:18:37.488Z,15.40
2018-04-22T06:21:05.456Z,15.40
2018-04-22T06:23:33.426Z,15.70
2018-04-22T06:26:01.362Z,15.90
2018-04-22T06:28:28.852Z,15.90
2018-04-22T06:30:57.847Z,16.30
2018-04-22T06:33:25.716Z,16.50
2018-04-22T06:35:55.547Z,16.70
2018-04-22T06:38:23.232Z,17.10
2018-04-22T06:40:51.782Z,17.70
2018-04-22T06:43:19.852Z,18.40
2018-04-22T06:45:53.857Z,18.80
2018-04-22T06:48:21.827Z,18.40
2018-04-22T06:50:49.496Z,18.10
2018-04-22T06:53:17.156Z,18.50
2018-04-22T06:55:45.130Z,18.70
2018-04-22T06:58:13.017Z,18.50
2018-04-22T07:00:40.556Z,18.70
2018-04-22T07:03:08.540Z,18.90
2018-04-22T07:05:36.031Z,18.80
2018-04-22T07:08:03.841Z,18.90
2018-04-22T07:10:31.937Z,19.60
2018-04-22T07:12:59.974Z,19.90
2018-04-22T07:15:27.555Z,19.80
2018-04-22T07:17:55.528Z,20.40
2018-04-22T07:20:23.593Z,20.60
2018-04-22T07:22:51.917Z,20.70
2018-04-22T07:25:20.859Z,20.50
2018-04-22T07:27:49.136Z,20.70
2018-04-22T07:30:17.106Z,21.30
2018-04-22T07:32:44.589Z,21.70
2018-04-22T07:35:12.531Z,22.20
2018-04-22T07:37:40.506Z,23.20
2018-04-22T07:40:14.207Z,23.40
2018-04-22T07:42:42.175Z,23.50
2018-04-22T07:45:09.635Z,24.20
2018-04-22T07:47:37.193Z,25.30
2018-04-22T07:50:04.639Z,25.00
2018-04-22T07:52:32.416Z,24.60
2018-04-22T07:55:00.306Z,24.70
2018-04-22T07:57:50.036Z,25.00
2018-04-22T08:00:23.265Z,25.30
2018-04-22T08:02:50.820Z,25.60
2018-04-22T08:05:18.787Z,25.60
2018-04-22T08:07:46.755Z,25.70
2018-04-22T08:10:16.731Z,25.40
2018-04-22T08:12:42.389Z,25.70
2018-04-22T08:15:10.469Z,25.90
2018-04-22T08:17:38.738Z,26.40
2018-04-22T08:20:08.578Z,26.80
2018-04-22T08:22:36.119Z,26.60
2018-04-22T08:25:04.287Z,26.70
2018-04-22T08:27:32.503Z,27.50
2018-04-22T08:30:00.023Z,27.90
2018-04-22T08:32:27.497Z,27.10
2018-04-22T08:34:55.039Z,27.00
2018-04-22T08:37:23.018Z,27.30
2018-04-22T08:39:50.588Z,27.50
2018-04-22T08:42:18.130Z,28.60
2018-04-22T08:44:46.199Z,29.10
2018-04-22T08:47:14.170Z,29.30
2018-04-22T08:49:42.254Z,28.90
2018-04-22T08:52:10.128Z,28.60
2018-04-22T08:54:37.566Z,28.00
2018-04-22T08:57:05.639Z,28.30
2018-04-22T08:59:33.717Z,28.70
2018-04-22T09:02:01.689Z,29.00
2018-04-22T09:04:29.756Z,29.10
2018-04-22T09:06:57.736Z,28.90
2018-04-22T09:09:25.287Z,29.80
2018-04-22T09:11:53.152Z,29.90
2018-04-22T09:14:21.173Z,29.60
2018-04-22T09:16:48.777Z,29.40
2018-04-22T09:19:16.852Z,30.40
2018-04-22T09:21:45.541Z,31.00
2018-04-22T09:24:13.136Z,30.60
2018-04-22T09:26:40.771Z,30.80
2018-04-22T09:29:08.592Z,29.90
2018-04-22T09:31:36.249Z,29.30
2018-04-22T09:34:04.069Z,29.00
2018-04-22T09:36:31.614Z,29.00
2018-04-22T09:38:59.584Z,29.20
2018-04-22T09:41:27.669Z,29.50
2018-04-22T09:43:55.830Z,29.50
2018-04-22T09:46:23.801Z,29.50
2018-04-22T09:48:51.778Z,29.50
2018-04-22T09:51:19.842Z,29.60
2018-04-22T09:53:47.709Z,29.40
2018-04-22T09:56:15.550Z,29.50
2018-04-22T09:58:43.146Z,29.60
2018-04-22T10:01:11.002Z,29.90
2018-04-22T10:03:38.899Z,29.90
2018-04-22T10:06:06.644Z,29.70
2018-04-22T10:08:34.119Z,29.50
2018-04-22T10:11:01.655Z,29.60
2018-04-22T10:13:29.725Z,29.50
2018-04-22T10:15:57.706Z,29.70
2018-04-22T10:18:25.767Z,29.90
2018-04-22T10:20:53.971Z,29.90
2018-04-22T10:23:22.742Z,29.90
2018-04-22T10:25:50.494Z,29.50
2018-04-22T10:28:18.467Z,29.30
2018-04-22T10:30:46.442Z,29.20
2018-04-22T10:33:13.894Z,29.30
2018-04-22T10:35:41.371Z,29.30
2018-04-22T10:38:08.806Z,29.30
2018-04-22T10:40:36.783Z,29.10
2018-04-22T10:43:04.338Z,29.00
2018-04-22T10:45:32.203Z,29.10
2018-04-22T10:48:00.995Z,29.30
2018-04-22T10:50:28.962Z,29.30
2018-04-22T10:52:58.350Z,29.50
2018-04-22T10:55:25.939Z,29.60
2018-04-22T10:57:53.553Z,29.60
2018-04-22T11:00:21.149Z,29.70
2018-04-22T11:02:49.040Z,29.80
2018-04-22T11:05:17.048Z,29.70
2018-04-22T11:07:44.597Z,29.80
2018-04-22T11:10:15.828Z,29.90
2018-04-22T11:12:43.355Z,29.90
2018-04-22T11:15:12.451Z,29.90
2018-04-22T11:17:43.597Z,29.90
2018-04-22T11:20:25.077Z,29.90
2018-04-22T11:22:53.045Z,29.90
2018-04-22T11:25:21.121Z,30.00
2018-04-22T11:27:49.102Z,30.10
2018-04-22T11:30:16.650Z,30.20
2018-04-22T11:32:44.626Z,30.40
2018-04-22T11:35:12.467Z,30.60
2018-04-22T11:37:40.053Z,30.70
2018-04-22T11:40:07.605Z,30.80
2018-04-22T11:42:35.577Z,30.90
2018-04-22T11:45:03.546Z,30.80
2018-04-22T11:47:31.524Z,30.80
2018-04-22T11:49:59.484Z,31.00
2018-04-22T11:52:27.559Z,31.20
2018-04-22T11:54:55.125Z,31.30
2018-04-22T11:57:23.088Z,31.40
2018-04-22T11:59:51.030Z,31.30
2018-04-22T12:02:18.820Z,31.40
2018-04-22T12:04:46.799Z,31.50
2018-04-22T12:07:14.931Z,31.50
2018-04-22T12:09:42.533Z,31.80
2018-04-22T12:12:10.496Z,31.90
2018-04-22T12:14:38.612Z,31.80
2018-04-22T12:17:06.127Z,31.80
2018-04-22T12:19:38.555Z,31.60
2018-04-22T12:22:05.956Z,32.00
2018-04-22T12:24:33.823Z,32.10
2018-04-22T12:27:01.697Z,32.30
2018-04-22T12:29:29.582Z,32.50
2018-04-22T12:31:57.127Z,32.70
2018-04-22T12:34:25.024Z,32.60
2018-04-22T12:36:52.483Z,32.60
2018-04-22T12:39:20.008Z,32.90
2018-04-22T12:41:48.076Z,33.30
2018-04-22T12:44:16.058Z,33.20
2018-04-22T12:49:34.436Z,33.30
2018-04-22T12:52:01.974Z,33.30
2018-04-22T12:54:29.501Z,33.20
2018-04-22T12:56:57.091Z,33.00
2018-04-22T12:59:25.067Z,33.30
2018-04-22T13:01:55.723Z,33.60
2018-04-22T13:04:23.353Z,33.80
2018-04-22T13:06:51.324Z,33.80
2018-04-22T13:09:19.293Z,33.80
2018-04-22T13:11:47.376Z,34.10
2018-04-22T13:14:14.929Z,34.00
2018-04-22T13:16:43.000Z,33.70
2018-04-22T13:19:10.974Z,33.90
2018-04-22T13:21:38.935Z,34.00
2018-04-22T13:24:06.609Z,33.80
2018-04-22T13:26:34.493Z,33.90
2018-04-22T13:29:02.131Z,33.70
2018-04-22T13:31:30.182Z,34.30
2018-04-22T13:33:57.569Z,34.40
2018-04-22T13:36:25.123Z,34.40
2018-04-22T13:38:53.086Z,34.40
2018-04-22T13:41:20.571Z,34.30
2018-04-22T13:43:48.308Z,34.70
2018-04-22T13:46:16.174Z,34.70
2018-04-22T13:48:43.992Z,34.80
2018-04-22T13:51:11.601Z,35.20
2018-04-22T13:53:39.579Z,35.40
2018-04-22T13:56:07.236Z,35.50
2018-04-22T13:58:35.156Z,35.70
2018-04-22T14:01:02.581Z,35.90
2018-04-22T14:03:30.054Z,35.80
2018-04-22T14:05:57.492Z,35.90
2018-04-22T14:08:24.949Z,35.90
2018-04-22T14:10:52.501Z,36.20
2018-04-22T14:13:20.464Z,36.50
2018-04-22T14:15:48.438Z,36.50
2018-04-22T14:18:16.404Z,36.60
2018-04-22T14:20:44.478Z,36.80
2018-04-22T14:23:11.877Z,36.60
2018-04-22T14:25:39.387Z,36.70
2018-04-22T14:28:06.946Z,36.70
2018-04-22T14:30:34.811Z,36.70
2018-04-22T14:33:02.781Z,36.60
2018-04-22T14:35:30.562Z,36.80
2018-04-22T14:37:58.062Z,37.00
2018-04-22T14:40:26.411Z,37.10
2018-04-22T14:42:57.117Z,37.00
2018-04-22T14:48:26.544Z,37.20
2018-04-22T14:50:54.478Z,37.50
2018-04-22T14:53:22.127Z,37.30
2018-04-22T14:55:49.589Z,37.30
2018-04-22T14:58:17.091Z,37.40
2018-04-22T15:00:45.061Z,37.40
2018-04-22T15:03:12.926Z,37.40
2018-04-22T15:05:40.900Z,37.40
2018-04-22T15:08:08.989Z,37.40
2018-04-22T15:10:36.447Z,37.50
2018-04-22T15:13:03.988Z,37.40
2018-04-22T15:15:32.369Z,37.50
2018-04-22T15:18:00.337Z,37.60
2018-04-22T15:20:28.203Z,37.70
2018-04-22T15:22:56.078Z,37.70
2018-04-22T15:25:24.048Z,38.00
2018-04-22T15:27:51.910Z,37.90
2018-04-22T15:30:19.471Z,37.80
2018-04-22T15:32:47.346Z,37.80
2018-04-22T15:35:15.304Z,37.80
2018-04-22T15:37:42.866Z,37.80
2018-04-22T15:40:10.740Z,37.80
2018-04-22T15:42:38.646Z,37.80
2018-04-22T15:45:06.378Z,37.90
2018-04-22T15:47:33.924Z,38.10
2018-04-22T15:50:01.894Z,38.00
2018-04-22T15:52:29.766Z,38.10
2018-04-22T15:54:57.737Z,38.00
2018-04-22T15:57:25.601Z,37.90
2018-04-22T15:59:54.155Z,37.80
2018-04-22T16:02:21.753Z,37.70
2018-04-22T16:04:49.304Z,37.60
2018-04-22T16:07:17.375Z,37.40
2018-04-22T16:09:45.248Z,37.50
2018-04-22T16:12:13.037Z,37.60
2018-04-22T16:14:40.690Z,37.50
2018-04-22T16:17:08.421Z,37.40
2018-04-22T16:19:36.002Z,37.30
2018-04-22T16:22:03.860Z,37.30
2018-04-22T16:24:31.846Z,37.30
2018-04-22T16:26:59.910Z,37.20
2018-04-22T16:29:29.660Z,37.10
2018-04-22T16:31:57.480Z,37.10
2018-04-22T16:34:32.106Z,36.90
2018-04-22T16:37:01.756Z,36.90
2018-04-22T16:39:29.523Z,36.80
2018-04-22T16:41:57.262Z,36.60
2018-04-22T16:44:25.008Z,36.40
2018-04-22T16:46:53.488Z,36.20
2018-04-22T16:49:28.554Z,35.90
2018-04-22T16:51:58.155Z,35.70
2018-04-22T16:54:28.457Z,35.40
2018-04-22T16:56:56.290Z,35.10
2018-04-22T16:59:28.492Z,34.80
2018-04-22T17:01:56.578Z,34.50
2018-04-22T17:04:24.618Z,34.20
2018-04-22T17:06:52.189Z,34.10
2018-04-22T17:09:20.070Z,33.80
2018-04-22T17:11:48.243Z,33.60
2018-04-22T17:14:16.104Z,33.40
2018-04-22T17:16:43.583Z,33.20
2018-04-22T17:19:11.020Z,33.00
2018-04-22T17:21:38.940Z,32.90
2018-04-22T17:24:06.691Z,32.70
2018-04-22T17:26:34.426Z,32.50
2018-04-22T17:29:03.515Z,32.30
2018-04-22T17:31:31.176Z,32.20
2018-04-22T17:33:59.414Z,32.00
2018-04-22T17:36:27.050Z,31.90
2018-04-22T17:38:55.901Z,31.70
2018-04-22T17:41:28.991Z,31.60
2018-04-22T17:43:59.112Z,31.40
2018-04-22T17:46:32.917Z,31.20
2018-04-22T17:49:00.897Z,31.10
2018-04-22T17:51:28.964Z,30.90
2018-04-22T17:53:59.898Z,30.80
2018-04-22T17:56:28.791Z,30.60
2018-04-22T17:58:56.718Z,30.50
2018-04-22T18:01:29.975Z,30.40
2018-04-22T18:04:03.861Z,30.20
2018-04-22T18:06:31.869Z,30.00
2018-04-22T18:08:59.625Z,29.90
2018-04-22T18:11:27.474Z,29.70
2018-04-22T18:13:56.147Z,29.60
2018-04-22T18:16:34.072Z,29.50
2018-04-22T18:19:01.816Z,29.30
2018-04-22T18:21:29.628Z,29.20
2018-04-22T18:23:57.343Z,29.10
2018-04-22T18:26:25.323Z,29.00
2018-04-22T18:28:52.989Z,28.90
2018-04-22T18:31:21.722Z,28.70
2018-04-22T18:33:49.329Z,28.60
2018-04-22T18:36:17.936Z,28.50
2018-04-22T18:38:45.572Z,28.40
2018-04-22T18:41:14.055Z,28.30
2018-04-22T18:43:41.931Z,28.20
2018-04-22T18:46:11.643Z,28.10
2018-04-22T18:48:39.752Z,28.00
2018-04-22T18:51:07.523Z,27.90
2018-04-22T18:53:35.133Z,27.80
2018-04-22T18:56:03.204Z,27.70
2018-04-22T18:58:37.223Z,27.60
2018-04-22T19:01:05.130Z,27.50
2018-04-22T19:03:33.051Z,27.30
2018-04-22T19:06:01.021Z,27.00
2018-04-22T19:08:28.545Z,26.90
2018-04-22T19:10:56.141Z,26.60
2018-04-22T19:13:24.031Z,26.30
2018-04-22T19:15:51.602Z,26.20
2018-04-22T19:18:19.172Z,26.10
2018-04-22T19:20:46.792Z,26.00
2018-04-22T19:23:14.349Z,25.30
2018-04-22T19:25:41.917Z,25.10
2018-04-22T19:28:09.943Z,24.40
2018-04-22T19:30:37.439Z,24.00
2018-04-22T19:33:05.408Z,23.40
2018-04-22T19:35:33.405Z,23.30
2018-04-22T19:38:07.602Z,23.10
2018-04-22T19:40:35.564Z,23.10
2018-04-22T19:43:12.155Z,23.00
2018-04-22T19:45:39.928Z,22.80
2018-04-22T19:48:15.249Z,22.70
2018-04-22T19:50:43.517Z,22.50
2018-04-22T19:53:11.491Z,22.50
2018-04-22T19:55:39.457Z,22.60
2018-04-22T19:58:08.667Z,22.60
2018-04-22T20:00:36.634Z,22.50
2018-04-22T20:03:04.493Z,22.60
2018-04-22T20:05:32.677Z,22.60
2018-04-22T20:08:00.225Z,22.60
2018-04-22T20:10:27.786Z,22.70
2018-04-22T20:13:01.594Z,22.80
2018-04-22T20:15:29.169Z,22.80
2018-04-22T20:17:56.714Z,22.70
2018-04-22T20:20:24.683Z,22.70
2018-04-22T20:22:52.344Z,22.60
2018-04-22T20:25:25.027Z,22.50
2018-04-22T20:27:53.097Z,22.40
2018-04-22T20:30:20.665Z,22.40
2018-04-22T20:32:49.652Z,22.30
2018-04-22T20:35:17.205Z,22.30
2018-04-22T20:37:44.775Z,22.10
2018-04-22T20:40:15.924Z,22.10
2018-04-22T20:42:51.983Z,22.00
2018-04-22T20:45:21.610Z,21.80
2018-04-22T20:47:49.223Z,21.70
2018-04-22T20:50:17.207Z,21.60
2018-04-22T20:52:45.491Z,21.50
2018-04-22T20:55:13.484Z,21.60
2018-04-22T20:57:41.234Z,21.40
2018-04-22T21:00:09.503Z,21.40
2018-04-22T21:02:37.610Z,21.40
2018-04-22T21:05:05.345Z,21.30
2018-04-22T21:07:33.235Z,21.30
2018-04-22T21:10:00.767Z,21.20
2018-04-22T21:12:28.951Z,21.10
2018-04-22T21:14:56.500Z,21.00
2018-04-22T21:17:25.298Z,20.90
2018-04-22T21:19:55.412Z,20.90
2018-04-22T21:22:23.594Z,20.90
2018-04-22T21:24:51.760Z,20.90
2018-04-22T21:27:24.756Z,20.80
2018-04-22T21:29:52.319Z,20.70
2018-04-22T21:32:20.232Z,20.60
2018-04-22T21:34:47.776Z,20.40
2018-04-22T21:37:15.355Z,20.30
2018-04-22T21:39:42.957Z,20.30
2018-04-22T21:42:10.825Z,20.30
2018-04-22T21:44:39.204Z,20.30
2018-04-22T21:47:07.181Z,20.20
2018-04-22T21:49:34.835Z,20.10
2018-04-22T21:52:03.124Z,20.00
2018-04-22T21:54:30.682Z,20.00
2018-04-22T21:56:58.643Z,20.00
2018-04-22T21:59:26.610Z,19.90
2018-04-22T22:01:54.683Z,19.90
2018-04-22T22:04:22.759Z,19.80
2018-04-22T22:06:50.315Z,19.70
2018-04-22T22:09:18.285Z,19.70
2018-04-22T22:11:46.254Z,19.70
2018-04-22T22:14:14.227Z,19.60
2018-04-22T22:16:42.212Z,19.60
2018-04-22T22:19:09.865Z,19.60
2018-04-22T22:21:38.038Z,19.50
2018-04-22T22:24:06.099Z,19.50
2018-04-22T22:26:34.378Z,19.40
2018-04-22T22:29:02.352Z,19.40
2018-04-22T22:31:30.247Z,19.30
2018-04-22T22:33:57.994Z,19.30
2018-04-22T22:36:29.022Z,19.30
2018-04-22T22:38:57.222Z,19.20
2018-04-22T22:41:24.756Z,19.10
2018-04-22T22:43:52.929Z,19.00
2018-04-22T22:46:21.005Z,19.00
2018-04-22T22:48:48.664Z,18.90
2018-04-22T22:51:20.527Z,18.90
2018-04-22T22:53:48.370Z,18.80
2018-04-22T22:56:15.849Z,18.80
2018-04-22T22:58:43.937Z,18.80
2018-04-22T23:01:11.482Z,18.70
2018-04-22T23:03:39.349Z,18.70
2018-04-22T23:06:07.259Z,18.60
2018-04-22T23:08:34.893Z,18.60
2018-04-22T23:11:02.390Z,18.50
2018-04-22T23:13:29.908Z,18.50
2018-04-22T23:15:57.458Z,18.40
2018-04-22T23:18:25.327Z,18.40
2018-04-22T23:20:53.451Z,18.30
2018-04-22T23:23:21.067Z,18.30
2018-04-22T23:25:49.260Z,18.30
2018-04-22T23:28:16.719Z,18.30
2018-04-22T23:30:44.170Z,18.20
2018-04-22T23:33:11.912Z,18.10
2018-04-22T23:35:39.886Z,18.10
2018-04-22T23:38:07.851Z,18.00
2018-04-22T23:40:35.673Z,18.00
2018-04-22T23:43:03.490Z,17.90
2018-04-22T23:45:31.379Z,18.00
2018-04-22T23:47:59.123Z,17.90
2018-04-22T23:50:26.611Z,17.90
2018-04-22T23:52:54.243Z,17.90
2018-04-22T23:55:22.217Z,17.70
2018-04-22T23:57:49.772Z,17.60
